createdAt,value
2019-03-01T16:45:56.405Z,0.30
2019-03-01T16:46:54.559Z,0.40
2019-03-01T16:47:54.472Z,0.30
2019-03-01T16:48:54.549Z,0.30
2019-03-01T16:49:54.509Z,0.40
2019-03-01T16:50:54.468Z,0.30
2019-03-01T16:51:54.799Z,0.30
2019-03-01T16:52:54.676Z,0.50
2019-03-01T16:53:54.481Z,0.30
2019-03-01T16:54:54.840Z,0.50
2019-03-01T16:55:54.840Z,0.30
2019-03-01T16:56:54.401Z,0.30
2019-03-01T16:58:06.051Z,0.30
2019-03-01T16:58:55.602Z,0.30
2019-03-01T16:59:54.368Z,0.30
2019-03-01T17:00:54.424Z,0.20
2019-03-01T17:01:54.363Z,0.30
2019-03-01T17:02:56.595Z,0.30
2019-03-01T17:03:54.509Z,0.40
2019-03-01T17:04:54.530Z,0.30
2019-03-01T17:05:55.133Z,0.30
2019-03-01T17:06:54.285Z,0.40
2019-03-01T17:07:54.251Z,0.20
2019-03-01T17:08:54.445Z,0.40
2019-03-01T17:09:55.032Z,0.50
2019-03-01T17:10:54.291Z,0.30
2019-03-01T17:11:54.350Z,0.30
2019-03-01T17:12:54.244Z,0.20
2019-03-01T17:13:54.156Z,0.40
2019-03-01T17:14:54.091Z,0.50
2019-03-01T17:15:54.160Z,0.40
2019-03-01T17:16:56.388Z,0.40
2019-03-01T17:17:55.168Z,0.30
2019-03-01T17:18:54.085Z,0.40
2019-03-01T17:19:54.080Z,0.30
2019-03-01T17:20:54.278Z,0.30
2019-03-01T17:21:54.126Z,0.40
2019-03-01T17:22:54.070Z,0.40
2019-03-01T17:23:54.682Z,0.40
2019-03-01T17:24:54.079Z,0.20
2019-03-01T17:25:53.967Z,0.20
2019-03-01T17:26:53.987Z,0.40
2019-03-01T17:27:54.132Z,0.30
2019-03-01T17:28:54.004Z,0.20
2019-03-01T17:29:53.929Z,0.20
2019-03-01T17:30:53.961Z,0.30
2019-03-01T17:31:53.951Z,0.30
2019-03-01T17:32:53.950Z,0.30
2019-03-01T17:33:53.969Z,0.30
2019-03-01T17:34:53.892Z,0.40
2019-03-01T17:35:53.932Z,0.30
2019-03-01T17:36:54.649Z,0.20
2019-03-01T17:37:53.847Z,0.20
2019-03-01T17:38:53.841Z,0.30
2019-03-01T17:39:56.533Z,0.20
2019-03-01T17:40:53.870Z,0.40
2019-03-01T17:41:53.815Z,0.20
2019-03-01T17:42:56.516Z,0.20
2019-03-01T17:43:53.847Z,0.30
2019-03-01T17:44:53.830Z,0.20
2019-03-01T17:45:54.488Z,0.40
2019-03-01T17:46:54.154Z,0.30
2019-03-01T17:47:55.506Z,0.30
2019-03-01T17:48:54.153Z,0.40
2019-03-01T17:49:53.717Z,0.20
2019-03-01T17:50:53.690Z,0.40
2019-03-01T17:51:56.556Z,0.20
2019-03-01T17:52:53.711Z,0.30
2019-03-01T17:53:53.696Z,0.30
2019-03-01T17:54:53.669Z,0.20
2019-03-01T17:55:53.676Z,0.30
2019-03-01T17:56:53.986Z,0.20
2019-03-01T17:57:53.678Z,0.20
2019-03-01T17:58:53.607Z,0.20
2019-03-01T17:59:55.619Z,0.20
2019-03-01T18:00:53.633Z,0.20
2019-03-01T18:01:53.594Z,0.30
2019-03-01T18:02:53.572Z,0.20
2019-03-01T18:03:53.653Z,0.20
2019-03-01T18:04:53.575Z,0.20
2019-03-01T18:05:53.556Z,0.30
2019-03-01T18:06:53.526Z,0.20
2019-03-01T18:07:53.522Z,0.30
2019-03-01T18:08:53.522Z,0.20
2019-03-01T18:09:55.310Z,0.20
2019-03-01T18:10:53.486Z,0.30
2019-03-01T18:11:53.523Z,0.20
2019-03-01T18:12:56.116Z,0.20
2019-03-01T18:13:53.446Z,0.30
2019-03-01T18:14:53.470Z,0.20
2019-03-01T18:15:53.550Z,0.20
2019-03-01T18:16:53.470Z,0.20
2019-03-01T18:17:53.438Z,0.20
2019-03-01T18:18:53.454Z,0.20
2019-03-01T18:19:53.402Z,0.20
2019-03-01T18:20:53.415Z,0.30
2019-03-01T18:21:53.431Z,0.20
2019-03-01T18:22:53.359Z,0.30
2019-03-01T18:23:53.356Z,0.30
2019-03-01T18:24:53.336Z,0.20
2019-03-01T18:25:53.322Z,0.20
2019-03-01T18:26:53.312Z,0.20
2019-03-01T18:27:53.905Z,0.30
2019-03-01T18:28:53.299Z,0.20
2019-03-01T18:29:53.296Z,0.20
2019-03-01T18:30:56.237Z,0.20
2019-03-01T18:31:53.246Z,0.20
2019-03-01T18:32:53.325Z,0.30
2019-03-01T18:33:53.713Z,0.30
2019-03-01T18:34:53.211Z,0.20
2019-03-01T18:35:55.726Z,0.20
2019-03-01T18:36:53.209Z,0.20
2019-03-01T18:37:55.104Z,0.20
2019-03-01T18:38:53.214Z,0.20
2019-03-01T18:39:53.329Z,0.20
2019-03-01T18:40:53.188Z,0.10
2019-03-01T18:41:53.169Z,0.10
2019-03-01T18:42:53.131Z,0.20
2019-03-01T18:43:53.133Z,0.20
2019-03-01T18:44:53.134Z,0.20
2019-03-01T18:45:53.131Z,0.20
2019-03-01T18:46:55.402Z,0.20
2019-03-01T18:47:53.088Z,0.20
2019-03-01T18:48:53.094Z,0.20
2019-03-01T18:49:55.289Z,0.20
2019-03-01T18:50:53.081Z,0.20
2019-03-01T18:51:53.081Z,0.20
2019-03-01T18:52:54.232Z,0.20
2019-03-01T18:53:53.027Z,0.20
2019-03-01T18:54:53.013Z,0.30
2019-03-01T18:55:53.746Z,0.20
2019-03-01T18:56:52.988Z,0.30
2019-03-01T18:57:53.051Z,0.20
2019-03-01T18:58:52.962Z,0.20
2019-03-01T18:59:52.936Z,0.20
2019-03-01T19:00:52.950Z,0.20
2019-03-01T19:01:52.930Z,0.30
2019-03-01T19:02:52.954Z,0.20
2019-03-01T19:03:53.076Z,0.10
2019-03-01T19:04:52.890Z,0.10
2019-03-01T19:05:52.891Z,0.20
2019-03-01T19:06:52.882Z,0.20
2019-03-01T19:07:52.869Z,0.10
2019-03-01T19:08:52.853Z,0.20
2019-03-01T19:09:53.255Z,0.20
2019-03-01T19:10:54.410Z,0.20
2019-03-01T19:11:52.832Z,0.20
2019-03-01T19:12:52.840Z,0.20
2019-03-01T19:13:52.834Z,0.20
2019-03-01T19:14:53.133Z,0.20
2019-03-01T19:15:54.590Z,0.20
2019-03-01T19:16:52.838Z,0.20
2019-03-01T19:17:52.758Z,0.20
2019-03-01T19:18:54.538Z,0.20
2019-03-01T19:19:52.730Z,0.20
2019-03-01T19:20:52.725Z,0.30
2019-03-01T19:21:53.484Z,0.20
2019-03-01T19:22:52.712Z,0.20
2019-03-01T19:23:52.683Z,0.20
2019-03-01T19:24:52.671Z,0.20
2019-03-01T19:25:52.642Z,0.20
2019-03-01T19:26:52.649Z,0.10
2019-03-01T19:27:52.677Z,0.20
2019-03-01T19:28:52.654Z,0.20
2019-03-01T19:29:52.717Z,0.20
2019-03-01T19:30:52.628Z,0.10
2019-03-01T19:31:52.602Z,0.10
2019-03-01T19:32:52.645Z,0.20
2019-03-01T19:33:52.633Z,0.30
2019-03-01T19:34:52.816Z,0.30
2019-03-01T19:35:52.538Z,0.20
2019-03-01T19:36:52.525Z,0.20
2019-03-01T19:37:52.552Z,0.10
2019-03-01T19:38:52.533Z,0.10
2019-03-01T19:39:52.554Z,0.20
2019-03-01T19:40:52.552Z,0.10
2019-03-01T19:41:54.580Z,0.20
2019-03-01T19:42:53.469Z,0.10
2019-03-01T19:43:57.404Z,0.20
2019-03-01T19:44:53.547Z,0.20
2019-03-01T19:45:52.618Z,0.20
2019-03-01T19:46:52.565Z,0.20
2019-03-01T19:47:52.457Z,0.20
2019-03-01T19:48:52.410Z,0.10
2019-03-01T19:49:52.393Z,0.30
2019-03-01T19:50:52.475Z,0.20
2019-03-01T19:51:52.370Z,0.20
2019-03-01T19:52:52.371Z,0.20
2019-03-01T19:53:52.408Z,0.20
2019-03-01T19:54:52.368Z,0.20
2019-03-01T19:55:52.323Z,0.20
2019-03-01T19:56:52.348Z,0.10
2019-03-01T19:57:52.401Z,0.20
2019-03-01T19:58:52.467Z,0.20
2019-03-01T19:59:52.274Z,0.40
2019-03-01T20:00:52.281Z,0.40
2019-03-01T20:01:52.599Z,0.30
2019-03-01T20:02:52.345Z,0.30
2019-03-01T20:03:52.236Z,1.10
2019-03-01T20:04:52.529Z,0.70
2019-03-01T20:05:52.255Z,0.30
2019-03-01T20:06:52.233Z,0.60
2019-03-01T20:07:54.685Z,0.60
2019-03-01T20:08:52.210Z,0.60
2019-03-01T20:09:52.630Z,0.40
2019-03-01T20:10:52.198Z,0.40
2019-03-01T20:11:52.176Z,0.80
2019-03-01T20:12:52.126Z,0.60
2019-03-01T20:13:53.700Z,0.60
2019-03-01T20:14:52.175Z,0.50
2019-03-01T20:15:52.120Z,0.50
2019-03-01T20:16:54.825Z,0.50
2019-03-01T20:17:53.093Z,0.60
2019-03-01T20:18:52.075Z,0.50
2019-03-01T20:19:53.581Z,0.60
2019-03-01T20:20:52.118Z,0.60
2019-03-01T20:21:52.076Z,0.50
2019-03-01T20:22:54.102Z,0.60
2019-03-01T20:23:52.030Z,0.50
2019-03-01T20:24:52.035Z,0.50
2019-03-01T20:25:52.004Z,0.50
2019-03-01T20:26:52.068Z,0.60
2019-03-01T20:27:51.968Z,0.70
2019-03-01T20:28:51.958Z,0.60
2019-03-01T20:29:52.483Z,0.70
2019-03-01T20:30:51.925Z,0.60
2019-03-01T20:31:51.925Z,0.70
2019-03-01T20:32:52.198Z,0.50
2019-03-01T20:33:51.895Z,0.80
2019-03-01T20:34:51.890Z,0.80
2019-03-01T20:35:51.893Z,0.70
2019-03-01T20:36:52.915Z,0.60
2019-03-01T20:37:51.895Z,0.50
2019-03-01T20:38:51.892Z,0.60
2019-03-01T20:39:52.090Z,0.60
2019-03-01T20:40:51.876Z,0.60
2019-03-01T20:41:53.057Z,0.70
2019-03-01T20:42:51.840Z,0.60
2019-03-01T20:43:51.837Z,0.60
2019-03-01T20:44:53.130Z,0.70
2019-03-01T20:45:51.793Z,0.70
2019-03-01T20:46:53.894Z,0.60
2019-03-01T20:47:53.500Z,0.70
2019-03-01T20:48:51.756Z,0.70
2019-03-01T20:49:52.443Z,0.70
2019-03-01T20:50:51.939Z,0.80
2019-03-01T20:51:52.378Z,0.70
2019-03-01T20:52:51.712Z,0.50
2019-03-01T20:53:51.679Z,0.60
2019-03-01T20:54:51.674Z,0.80
2019-03-01T20:55:51.655Z,0.90
2019-03-01T20:56:52.682Z,0.80
2019-03-01T20:57:51.671Z,0.70
2019-03-01T20:58:51.765Z,0.80
2019-03-01T20:59:51.667Z,0.70
2019-03-01T21:00:51.609Z,0.70
2019-03-01T21:01:51.608Z,0.70
2019-03-01T21:02:51.640Z,0.80
2019-03-01T21:03:51.566Z,0.70
2019-03-01T21:04:53.659Z,0.60
2019-03-01T21:05:51.597Z,0.80
2019-03-01T21:06:51.602Z,0.70
2019-03-01T21:07:53.835Z,0.80
2019-03-01T21:08:51.593Z,0.60
2019-03-01T21:09:51.496Z,0.70
2019-03-01T21:10:51.511Z,0.60
2019-03-01T21:11:51.494Z,0.60
2019-03-01T21:12:51.487Z,0.60
2019-03-01T21:13:51.510Z,0.60
2019-03-01T21:14:51.549Z,0.60
2019-03-01T21:15:53.194Z,0.60
2019-03-01T21:16:51.494Z,0.70
2019-03-01T21:17:53.056Z,0.70
2019-03-01T21:18:52.419Z,0.60
2019-03-01T21:19:51.409Z,0.70
2019-03-01T21:20:53.699Z,0.80
2019-03-01T21:21:51.389Z,0.60
2019-03-01T21:22:51.363Z,0.60
2019-03-01T21:23:51.856Z,0.70
2019-03-01T21:24:51.355Z,0.50
2019-03-01T21:25:51.332Z,0.70
2019-03-01T21:26:52.070Z,0.70
2019-03-01T21:27:51.416Z,0.50
2019-03-01T21:28:51.285Z,0.60
2019-03-01T21:29:51.283Z,0.80
2019-03-01T21:30:51.322Z,0.70
2019-03-01T21:31:51.310Z,0.60
2019-03-01T21:32:51.786Z,0.70
2019-03-01T21:33:51.319Z,0.70
2019-03-01T21:34:51.308Z,0.60
2019-03-01T21:35:52.031Z,0.70
2019-03-01T21:36:51.888Z,0.60
2019-03-01T21:37:51.232Z,0.50
2019-03-01T21:38:51.272Z,0.60
2019-03-01T21:39:51.195Z,0.60
2019-03-01T21:40:51.190Z,0.60
2019-03-01T21:41:51.394Z,0.50
2019-03-01T21:42:52.738Z,0.50
2019-03-01T21:43:51.150Z,0.50
2019-03-01T21:44:51.172Z,0.60
2019-03-01T21:45:51.120Z,0.50
2019-03-01T21:46:51.090Z,0.60
2019-03-01T21:47:51.116Z,0.60
2019-03-01T21:48:51.085Z,0.60
2019-03-01T21:49:51.082Z,0.70
2019-03-01T21:50:51.363Z,0.50
2019-03-01T21:51:51.759Z,0.50
2019-03-01T21:52:51.048Z,0.50
2019-03-01T21:53:51.045Z,0.50
2019-03-01T21:54:52.072Z,0.50
2019-03-01T21:55:51.005Z,0.60
2019-03-01T21:56:55.960Z,0.60
2019-03-01T21:57:51.995Z,0.60
2019-03-01T21:58:50.956Z,0.50
2019-03-01T21:59:52.484Z,0.50
2019-03-01T22:00:50.963Z,0.60
2019-03-01T22:01:52.722Z,0.60
2019-03-01T22:02:53.968Z,0.50
2019-03-01T22:03:51.058Z,0.60
2019-03-01T22:04:50.893Z,0.50
2019-03-01T22:05:50.886Z,0.60
2019-03-01T22:06:50.996Z,0.50
2019-03-01T22:07:50.925Z,0.50
2019-03-01T22:08:50.894Z,0.50
2019-03-01T22:09:50.872Z,0.50
2019-03-01T22:10:50.856Z,0.40
2019-03-01T22:11:50.918Z,0.60
2019-03-01T22:12:50.828Z,0.50
2019-03-01T22:13:50.827Z,0.40
2019-03-01T22:14:50.863Z,0.50
2019-03-01T22:15:50.773Z,0.60
2019-03-01T22:16:50.772Z,0.60
2019-03-01T22:17:50.756Z,0.50
2019-03-01T22:18:52.121Z,0.50
2019-03-01T22:19:52.245Z,0.50
2019-03-01T22:20:50.796Z,0.50
2019-03-01T22:21:50.772Z,0.50
2019-03-01T22:22:50.686Z,0.50
2019-03-01T22:23:52.583Z,0.50
2019-03-01T22:24:50.721Z,0.60
2019-03-01T22:25:50.678Z,0.50
2019-03-01T22:26:50.715Z,0.50
2019-03-01T22:27:51.642Z,0.40
2019-03-01T22:28:50.631Z,0.60
2019-03-01T22:29:52.674Z,0.40
2019-03-01T22:30:50.636Z,0.50
2019-03-01T22:31:50.658Z,0.40
2019-03-01T22:32:50.747Z,0.60
2019-03-01T22:33:52.590Z,0.40
2019-03-01T22:34:51.560Z,0.50
2019-03-01T22:35:50.642Z,0.50
2019-03-01T22:36:52.915Z,0.50
2019-03-01T22:37:50.559Z,0.40
2019-03-01T22:38:50.627Z,0.50
2019-03-01T22:39:51.495Z,0.50
2019-03-01T22:40:50.522Z,0.50
2019-03-01T22:41:50.524Z,0.40
2019-03-01T22:42:51.111Z,0.40
2019-03-01T22:43:50.573Z,0.50
2019-03-01T22:44:50.486Z,0.60
2019-03-01T22:45:50.455Z,0.40
2019-03-01T22:46:50.456Z,0.40
2019-03-01T22:47:50.450Z,0.50
2019-03-01T22:48:56.304Z,0.40
2019-03-01T22:49:51.454Z,0.50
2019-03-01T22:50:50.400Z,0.50
2019-03-01T22:51:53.014Z,0.50
2019-03-01T22:52:50.387Z,0.50
2019-03-01T22:53:50.360Z,0.50
2019-03-01T22:54:50.348Z,0.40
2019-03-01T22:55:50.375Z,0.50
2019-03-01T22:56:50.398Z,0.40
2019-03-01T22:57:50.323Z,0.40
2019-03-01T22:58:50.328Z,0.50
2019-03-01T22:59:50.321Z,0.50
2019-03-01T23:00:50.309Z,0.50
2019-03-01T23:01:50.333Z,0.50
2019-03-01T23:02:50.324Z,0.40
2019-03-01T23:03:51.569Z,0.60
2019-03-01T23:04:50.286Z,0.40
2019-03-01T23:05:50.323Z,0.50
2019-03-01T23:06:51.482Z,0.50
2019-03-01T23:07:50.353Z,0.50
2019-03-01T23:08:50.195Z,0.40
2019-03-01T23:09:50.204Z,0.40
2019-03-01T23:10:50.194Z,0.50
2019-03-01T23:11:50.177Z,0.50
2019-03-01T23:12:50.154Z,0.50
2019-03-01T23:13:52.832Z,0.50
2019-03-01T23:14:51.135Z,0.50
2019-03-01T23:15:50.151Z,0.50
2019-03-01T23:16:50.689Z,0.40
2019-03-01T23:17:50.111Z,0.50
2019-03-01T23:18:56.666Z,0.50
2019-03-01T23:19:51.617Z,0.50
2019-03-01T23:20:50.128Z,0.70
2019-03-01T23:21:50.042Z,0.50
2019-03-01T23:22:50.602Z,0.50
2019-03-01T23:23:50.114Z,0.50
2019-03-01T23:24:50.327Z,0.50
2019-03-01T23:25:51.014Z,0.50
2019-03-01T23:26:50.274Z,0.50
2019-03-01T23:27:50.391Z,0.60
2019-03-01T23:28:50.423Z,0.60
2019-03-01T23:29:53.861Z,0.60
2019-03-01T23:30:50.392Z,0.70
2019-03-01T23:31:50.209Z,0.70
2019-03-01T23:32:52.736Z,0.50
2019-03-01T23:33:50.310Z,0.40
2019-03-01T23:34:50.094Z,0.50
2019-03-01T23:35:53.040Z,0.50
2019-03-01T23:36:49.882Z,0.60
2019-03-01T23:37:49.925Z,0.40
2019-03-01T23:38:51.309Z,0.50
2019-03-01T23:39:50.357Z,0.50
2019-03-01T23:40:49.894Z,0.40
2019-03-01T23:41:50.051Z,0.50
2019-03-01T23:42:53.403Z,0.60
2019-03-01T23:43:51.969Z,0.50
2019-03-01T23:44:51.204Z,0.50
2019-03-01T23:45:53.789Z,0.40
2019-03-01T23:46:50.081Z,0.60
2019-03-01T23:47:50.048Z,0.50
2019-03-01T23:48:50.126Z,0.40
2019-03-01T23:49:50.129Z,0.40
2019-03-01T23:50:50.130Z,0.40
2019-03-01T23:51:49.891Z,0.40
2019-03-01T23:52:50.137Z,0.40
2019-03-01T23:53:50.009Z,0.50
2019-03-01T23:54:49.691Z,0.50
2019-03-01T23:55:50.924Z,0.40
2019-03-01T23:56:49.688Z,0.50
2019-03-01T23:57:49.971Z,0.50
2019-03-01T23:58:51.855Z,0.40
2019-03-01T23:59:49.950Z,0.60
